Time;durP1;ratioP1;P1;durP2;ratioP2;P2;SDS_P1;SDS_P2;PMS_P1;PMS_P2;Temp;Humidity;BMP_temperature;BMP_pressure;BME280_temperature;BME280_humidity;BME280_pressure;Samples;Min_cycle;Max_cycle;Signal;HPM_P1;HPM_P2
2021/11/16 00:00:39;;;;;;;;;;;;;;;22.49;51.14;102743.44;2092714;28;855;-57
2021/11/16 00:01:39;;;;;;;;;;;;;;;22.52;50.83;102740.72;2092756;28;985;-58
2021/11/16 00:02:40;;;;;;;;;;;;;;;22.52;53.95;102742.53;2092695;28;846;-57
2021/11/16 00:03:40;;;;;;;;;;;;;;;22.47;55.93;102748.88;2092642;28;791;-58
2021/11/16 00:04:41;;;;;;;;;;;;;;;22.43;52.62;102746.19;2092501;28;971;-57
2021/11/16 00:05:41;;;;;;;;;;;;;;;22.44;52.09;102745.31;2092575;28;1219;-57
2021/11/16 00:06:43;;;;;;;;;;;;;;;22.49;49.22;102747.06;2092690;28;921;-57
2021/11/16 00:07:43;;;;;;;;;;;;;;;22.51;49.55;102741.63;2092420;28;961;-57
2021/11/16 00:08:44;;;;;;;;;;;;;;;22.48;52.11;102744.34;2092621;28;981;-57
2021/11/16 00:09:47;;;;;;;;;;;;;;;22.42;52.18;102736.28;2092663;28;843;-58
2021/11/16 00:10:47;;;;;;;;;;;;;;;22.42;50.54;102739.91;2092415;28;871;-57
2021/11/16 00:11:47;;;;;;;;;;;;;;;22.38;52.53;102739.94;2092558;28;1394;-57
2021/11/16 00:12:47;;;;;;;;;;;;;;;22.38;53.09;102734.53;2092512;28;1003;-58
2021/11/16 00:13:49;;;;;;;;;;;;;;;22.36;51.04;102731.88;2092621;28;997;-57
2021/11/16 00:14:50;;;;;;;;;;;;;;;22.40;49.32;102738.13;2092541;28;854;-57
2021/11/16 00:15:50;;;;;;;;;;;;;;;22.43;49.37;102736.28;2083694;28;1323;-58
2021/11/16 00:16:50;;;;;;;;;;;;;;;22.42;49.74;102730.88;2083646;28;2057;-57
2021/11/16 00:17:50;;;;;;;;;;;;;;;22.34;53.04;102734.59;2092442;28;823;-57
2021/11/16 00:18:57;;;;;;;;;;;;;;;22.36;52.05;102740.88;2092251;28;1017;-57
2021/11/16 00:19:58;;;;;;;;;;;;;;;22.34;52.44;102736.38;2092691;28;1020;-59
2021/11/16 00:20:59;;;;;;;;;;;;;;;22.34;51.44;102742.69;2092537;28;791;-57
2021/11/16 00:22:00;;;;;;;;;;;;;;;22.29;53.59;102733.75;2092338;28;874;-57
2021/11/16 00:23:01;;;;;;;;;;;;;;;22.32;51.87;102738.22;2092486;28;890;-57
2021/11/16 00:24:08;;;;;;;;;;;;;;;22.29;54.51;102733.75;2092638;28;741;-57
2021/11/16 00:25:20;;;;;;;;;;;;;;;22.25;55.03;102736.47;2092487;28;842;-57
2021/11/16 00:26:20;;;;;;;;;;;;;;;22.30;51.14;102735.53;2092515;28;857;-57
2021/11/16 00:27:20;;;;;;;;;;;;;;;22.28;50.57;102739.16;2092383;28;879;-57
2021/11/16 00:28:22;;;;;;;;;;;;;;;22.29;53.35;102731.06;2092166;28;969;-57
2021/11/16 00:29:22;;;;;;;;;;;;;;;22.34;49.33;102723.81;2092004;28;985;-57
2021/11/16 00:30:22;;;;;;;;;;;;;;;22.33;53.64;102724.72;2092315;28;768;-57
2021/11/16 00:31:22;;;;;;;;;;;;;;;22.22;53.46;102715.84;2092450;28;1017;-57
2021/11/16 00:32:22;;;;;;;;;;;;;;;22.27;51.16;102726.56;2092441;28;909;-57
2021/11/16 00:33:23;;;;;;;;;;;;;;;22.24;50.56;102729.28;2092169;28;846;-58
2021/11/16 00:34:23;;;;;;;;;;;;;;;22.19;53.15;102721.25;2092394;28;871;-57
2021/11/16 00:35:24;;;;;;;;;;;;;;;22.18;54.41;102724.88;2092397;28;932;-57
2021/11/16 00:36:24;;;;;;;;;;;;;;;22.17;52.73;102723.09;2092252;28;1959;-58
2021/11/16 00:37:27;;;;;;;;;;;;;;;22.12;52.80;102714.13;2092361;28;977;-57
2021/11/16 00:38:27;;;;;;;;;;;;;;;22.15;55.28;102717.69;2092242;28;1198;-57
2021/11/16 00:39:27;;;;;;;;;;;;;;;22.08;54.23;102717.78;2092415;28;863;-58
2021/11/16 00:40:28;;;;;;;;;;;;;;;22.07;54.70;102716.91;2092379;28;1056;-57
2021/11/16 00:41:28;;;;;;;;;;;;;;;22.14;52.84;102713.19;2092347;28;981;-57
2021/11/16 00:42:28;;;;;;;;;;;;;;;22.13;51.62;102716.81;2092367;28;838;-57
2021/11/16 00:43:28;;;;;;;;;;;;;;;22.19;51.40;102707.75;2092377;28;831;-57
2021/11/16 00:44:28;;;;;;;;;;;;;;;22.21;52.27;102714.03;2092269;28;1055;-57
2021/11/16 00:45:29;;;;;;;;;;;;;;;22.16;52.43;102713.19;2092344;28;914;-57
2021/11/16 00:46:29;;;;;;;;;;;;;;;22.19;51.60;102707.75;2092149;28;965;-57
2021/11/16 00:47:29;;;;;;;;;;;;;;;22.13;51.23;102719.50;2092290;28;850;-58
2021/11/16 00:48:29;;;;;;;;;;;;;;;22.13;52.65;102711.41;2092375;28;1192;-57
2021/11/16 00:49:29;;;;;;;;;;;;;;;22.12;51.14;102716.84;2083356;28;1385;-57
2021/11/16 00:50:30;;;;;;;;;;;;;;;22.08;54.34;102717.78;2083495;28;877;-58
2021/11/16 00:51:30;;;;;;;;;;;;;;;22.16;50.85;102707.78;2092128;28;1244;-57
2021/11/16 00:52:30;;;;;;;;;;;;;;;22.07;54.64;102708.81;2092052;28;988;-57
2021/11/16 00:53:32;;;;;;;;;;;;;;;22.09;54.97;102703.38;2092444;28;840;-57
2021/11/16 00:54:32;;;;;;;;;;;;;;;22.09;50.71;102695.28;2092202;28;1173;-57
2021/11/16 00:55:33;;;;;;;;;;;;;;;22.15;51.99;102703.31;2092251;28;759;-57
2021/11/16 00:56:33;;;;;;;;;;;;;;;22.11;51.98;102701.56;2092016;28;1988;-57
2021/11/16 00:57:33;;;;;;;;;;;;;;;22.15;51.16;102695.22;2092137;28;944;-57
2021/11/16 00:58:33;;;;;;;;;;;;;;;22.13;52.13;102691.63;2092194;28;776;-58
2021/11/16 00:59:34;;;;;;;;;;;;;;;22.13;52.10;102694.34;2092252;28;777;-57
2021/11/16 01:00:34;;;;;;;;;;;;;;;22.13;51.14;102689.81;2083203;28;791;-57
2021/11/16 01:01:35;;;;;;;;;;;;;;;22.13;50.49;102687.13;2083436;28;1035;-58
2021/11/16 01:02:35;;;;;;;;;;;;;;;22.13;51.12;102694.34;2092077;28;763;-57
2021/11/16 01:03:35;;;;;;;;;;;;;;;22.06;52.70;102694.41;2092207;28;885;-57
2021/11/16 01:04:35;;;;;;;;;;;;;;;22.03;50.11;102683.63;2092177;28;957;-58
2021/11/16 01:05:35;;;;;;;;;;;;;;;22.01;53.47;102682.75;2092126;28;818;-57
2021/11/16 01:06:36;;;;;;;;;;;;;;;21.98;54.59;102673.81;2091978;28;808;-57
2021/11/16 01:07:36;;;;;;;;;;;;;;;21.95;54.05;102680.13;2092139;28;922;-57
2021/11/16 01:08:36;;;;;;;;;;;;;;;21.95;52.00;102679.25;2092104;28;807;-57
2021/11/16 01:09:36;;;;;;;;;;;;;;;21.98;51.81;102674.69;2092180;28;1028;-58
2021/11/16 01:10:38;;;;;;;;;;;;;;;22.00;52.30;102672.88;2092146;28;1204;-57
2021/11/16 01:11:38;;;;;;;;;;;;;;;22.04;51.89;102673.75;2092142;28;842;-57
2021/11/16 01:12:39;;;;;;;;;;;;;;;22.10;52.63;102676.34;2092171;28;870;-58
2021/11/16 01:13:39;;;;;;;;;;;;;;;22.09;51.25;102679.09;2092107;28;981;-57
2021/11/16 01:14:42;;;;;;;;;;;;;;;22.01;50.68;102669.25;2092157;28;882;-57
2021/11/16 01:15:44;;;;;;;;;;;;;;;21.98;51.11;102665.72;2092119;28;989;-57
2021/11/16 01:16:45;;;;;;;;;;;;;;;22.00;52.30;102666.59;2091595;28;1901;-57
2021/11/16 01:17:45;;;;;;;;;;;;;;;22.00;53.64;102661.19;2092096;28;775;-57
2021/11/16 01:18:45;;;;;;;;;;;;;;;21.98;51.49;102657.63;2092100;28;1036;-58
2021/11/16 01:19:46;;;;;;;;;;;;;;;21.99;52.20;102660.28;2092073;28;866;-57
2021/11/16 01:20:47;;;;;;;;;;;;;;;22.12;49.28;102663.72;2092052;28;923;-57
2021/11/16 01:21:47;;;;;;;;;;;;;;;22.04;51.21;102668.34;2082967;28;934;-57
2021/11/16 01:22:50;;;;;;;;;;;;;;;22.01;51.21;102671.97;2083251;28;794;-57
2021/11/16 01:23:50;;;;;;;;;;;;;;;22.06;50.07;102667.41;2091977;28;1031;-57
2021/11/16 01:24:50;;;;;;;;;;;;;;;22.11;49.07;102664.66;2091789;28;1199;-57
2021/11/16 01:25:51;;;;;;;;;;;;;;;22.04;52.27;102660.25;2092045;28;827;-57
2021/11/16 01:26:51;;;;;;;;;;;;;;;22.00;50.83;102656.69;2092004;28;795;-58
2021/11/16 01:27:52;;;;;;;;;;;;;;;22.02;50.83;102656.69;2091841;28;1279;-57
2021/11/16 01:28:54;;;;;;;;;;;;;;;22.01;51.79;102652.19;2092004;28;869;-57
2021/11/16 01:29:55;;;;;;;;;;;;;;;22.00;51.27;102653.09;2091865;28;1151;-57
2021/11/16 01:30:58;;;;;;;;;;;;;;;21.97;50.52;102643.22;2091980;28;814;-57
2021/11/16 01:31:58;;;;;;;;;;;;;;;21.95;51.91;102645.03;2092002;28;842;-58
2021/11/16 01:33:11;;;;;;;;;;;;;;;21.99;51.24;102649.50;2083075;28;902;-58
2021/11/16 01:34:11;;;;;;;;;;;;;;;21.89;53.71;102650.50;2084948;28;878;-58
2021/11/16 01:35:12;;;;;;;;;;;;;;;21.89;52.28;102650.50;2091886;28;850;-58
2021/11/16 01:36:13;;;;;;;;;;;;;;;21.87;50.74;102645.13;2091801;28;806;-58
2021/11/16 01:37:14;;;;;;;;;;;;;;;21.94;51.37;102645.06;2091911;28;2026;-58
2021/11/16 01:38:16;;;;;;;;;;;;;;;21.92;52.08;102645.06;2091720;28;1224;-59
2021/11/16 01:39:16;;;;;;;;;;;;;;;21.98;50.95;102641.44;2091870;28;854;-59
2021/11/16 01:40:18;;;;;;;;;;;;;;;21.93;51.63;102638.75;2091634;28;924;-58
2021/11/16 01:41:18;;;;;;;;;;;;;;;21.89;52.00;102642.41;2091346;28;843;-59
2021/11/16 01:42:20;;;;;;;;;;;;;;;21.88;51.22;102643.31;2083022;28;942;-58
2021/11/16 01:43:20;;;;;;;;;;;;;;;22.02;50.91;102640.50;2083223;28;774;-58
2021/11/16 01:44:21;;;;;;;;;;;;;;;21.95;52.27;102636.06;2091689;28;857;-57
2021/11/16 01:45:21;;;;;;;;;;;;;;;21.91;50.92;102628.00;2091893;28;759;-56
2021/11/16 01:46:22;;;;;;;;;;;;;;;21.92;52.01;102628.88;2091803;28;913;-56
2021/11/16 01:47:22;;;;;;;;;;;;;;;21.95;50.58;102628.84;2091521;28;973;-57
2021/11/16 01:48:24;;;;;;;;;;;;;;;21.88;52.75;102622.63;2091852;28;828;-56
2021/11/16 01:49:24;;;;;;;;;;;;;;;21.84;52.18;102628.06;2091877;28;810;-56
2021/11/16 01:50:25;;;;;;;;;;;;;;;21.92;50.13;102631.59;2091609;28;760;-55
2021/11/16 01:51:27;;;;;;;;;;;;;;;21.94;52.45;102629.75;2091869;28;854;-55
2021/11/16 01:52:27;;;;;;;;;;;;;;;21.93;51.09;102630.66;2091717;28;873;-56
2021/11/16 01:53:28;;;;;;;;;;;;;;;21.94;52.28;102634.28;2091643;28;806;-55
2021/11/16 01:54:28;;;;;;;;;;;;;;;21.93;52.58;102622.56;2091829;28;984;-55
2021/11/16 01:55:29;;;;;;;;;;;;;;;22.02;51.33;102622.47;2091717;28;957;-58
2021/11/16 01:56:36;;;;;;;;;;;;;;;22.01;49.62;102619.81;2091325;28;1906;-57
2021/11/16 01:57:36;;;;;;;;;;;;;;;21.97;52.56;102620.75;2091824;28;819;-57
2021/11/16 01:58:38;;;;;;;;;;;;;;;21.93;50.68;102617.19;2091600;28;823;-57
2021/11/16 01:59:38;;;;;;;;;;;;;;;21.94;51.04;102615.38;2091608;28;862;-57
2021/11/16 02:00:40;;;;;;;;;;;;;;;21.92;53.15;102615.38;2091745;28;831;-57
2021/11/16 02:01:41;;;;;;;;;;;;;;;21.91;51.14;102617.22;2090664;28;1620;-57
2021/11/16 02:02:41;;;;;;;;;;;;;;;21.99;51.28;102614.41;2091788;28;988;-57
2021/11/16 02:03:41;;;;;;;;;;;;;;;22.00;51.36;102613.50;2091721;28;779;-58
2021/11/16 02:04:42;;;;;;;;;;;;;;;22.00;50.94;102616.19;2091705;28;863;-57
2021/11/16 02:05:51;;;;;;;;;;;;;;;21.98;50.81;102611.75;2091662;28;780;-57
2021/11/16 02:06:51;;;;;;;;;;;;;;;21.99;52.97;102603.63;2091684;28;644;-58
2021/11/16 02:07:51;;;;;;;;;;;;;;;21.97;50.51;102607.25;2091711;28;834;-58
2021/11/16 02:08:53;;;;;;;;;;;;;;;21.95;52.82;102609.97;2091643;28;1312;-57
2021/11/16 02:09:53;;;;;;;;;;;;;;;21.92;51.19;102604.59;2091584;28;807;-58
2021/11/16 02:10:54;;;;;;;;;;;;;;;21.87;52.67;102607.38;2091667;28;847;-57
2021/11/16 02:11:54;;;;;;;;;;;;;;;21.79;52.36;102608.34;2091520;28;1090;-57
2021/11/16 02:12:54;;;;;;;;;;;;;;;21.79;52.09;102606.56;2091750;28;842;-58
2021/11/16 02:13:55;;;;;;;;;;;;;;;21.81;52.08;102607.44;2091618;28;855;-58
2021/11/16 02:14:55;;;;;;;;;;;;;;;21.86;51.57;102607.38;2091648;28;889;-57
2021/11/16 02:15:55;;;;;;;;;;;;;;;21.95;50.78;102606.38;2091662;28;989;-57
2021/11/16 02:16:55;;;;;;;;;;;;;;;21.86;51.71;102608.28;2091488;28;1961;-57
2021/11/16 02:17:56;;;;;;;;;;;;;;;21.86;50.90;102610.06;2091575;28;875;-58
2021/11/16 02:18:56;;;;;;;;;;;;;;;21.84;49.61;102606.47;2091645;28;838;-57
2021/11/16 02:19:56;;;;;;;;;;;;;;;21.84;50.45;102607.41;2091575;28;767;-57
2021/11/16 02:20:57;;;;;;;;;;;;;;;21.83;53.26;102602.00;2091614;28;989;-57
2021/11/16 02:21:57;;;;;;;;;;;;;;;21.78;51.81;102593.97;2091651;28;981;-57
2021/11/16 02:22:57;;;;;;;;;;;;;;;21.77;51.74;102586.78;2091490;28;1060;-57
2021/11/16 02:23:58;;;;;;;;;;;;;;;21.76;50.93;102585.91;2091642;28;960;-58
2021/11/16 02:24:58;;;;;;;;;;;;;;;21.72;52.09;102586.84;2091591;28;792;-57
2021/11/16 02:25:59;;;;;;;;;;;;;;;21.77;51.37;102586.78;2091546;28;846;-58
2021/11/16 02:26:59;;;;;;;;;;;;;;;21.86;50.97;102581.28;2091658;28;1050;-58
2021/11/16 02:28:00;;;;;;;;;;;;;;;21.83;51.73;102586.72;2091388;28;791;-57
2021/11/16 02:29:00;;;;;;;;;;;;;;;21.76;53.61;102590.41;2091602;28;958;-58
2021/11/16 02:30:01;;;;;;;;;;;;;;;21.81;52.89;102585.84;2091487;28;834;-57
2021/11/16 02:31:01;;;;;;;;;;;;;;;21.80;52.01;102584.06;2091510;28;949;-58
2021/11/16 02:32:01;;;;;;;;;;;;;;;21.73;51.55;102580.56;2091555;28;815;-58
2021/11/16 02:33:02;;;;;;;;;;;;;;;21.81;51.67;102576.84;2091382;28;993;-57
2021/11/16 02:34:03;;;;;;;;;;;;;;;21.81;50.62;102571.44;2091306;28;798;-58
2021/11/16 02:35:04;;;;;;;;;;;;;;;21.82;51.41;102571.44;2091514;28;775;-59
2021/11/16 02:36:04;;;;;;;;;;;;;;;21.73;52.49;102572.47;2091323;28;1256;-57
2021/11/16 02:37:04;;;;;;;;;;;;;;;21.68;51.87;102574.31;2091443;28;1947;-58
2021/11/16 02:38:04;;;;;;;;;;;;;;;21.78;52.42;102577.78;2091430;28;1441;-57
2021/11/16 02:39:05;;;;;;;;;;;;;;;21.74;50.93;102571.53;2091235;28;966;-57
2021/11/16 02:40:06;;;;;;;;;;;;;;;21.73;50.83;102569.75;2091513;28;810;-58
2021/11/16 02:41:07;;;;;;;;;;;;;;;21.74;52.07;102571.53;2091448;28;965;-57
2021/11/16 02:42:08;;;;;;;;;;;;;;;21.79;52.03;102574.19;2082339;28;894;-57
2021/11/16 02:43:08;;;;;;;;;;;;;;;21.84;51.70;102563.31;2082687;28;992;-58
2021/11/16 02:44:09;;;;;;;;;;;;;;;21.82;49.73;102562.44;2091523;28;885;-57
2021/11/16 02:45:10;;;;;;;;;;;;;;;21.88;49.94;102562.38;2091395;28;949;-58
2021/11/16 02:46:10;;;;;;;;;;;;;;;21.79;52.78;102565.19;2091549;28;775;-58
2021/11/16 02:47:10;;;;;;;;;;;;;;;21.78;51.96;102567.00;2091428;28;861;-57
2021/11/16 02:48:13;;;;;;;;;;;;;;;21.80;52.05;102572.34;2091225;28;894;-58
2021/11/16 02:49:14;;;;;;;;;;;;;;;21.73;52.77;102566.16;2091435;28;874;-57
2021/11/16 02:50:15;;;;;;;;;;;;;;;21.72;52.25;102575.16;2091394;28;968;-57
2021/11/16 02:51:15;;;;;;;;;;;;;;;21.71;52.15;102568.88;2091338;28;964;-58
2021/11/16 02:52:15;;;;;;;;;;;;;;;21.66;50.97;102573.44;2091228;28;902;-57
2021/11/16 02:53:16;;;;;;;;;;;;;;;21.75;50.58;102564.34;2091300;28;843;-57
2021/11/16 02:54:18;;;;;;;;;;;;;;;21.74;52.18;102560.75;2091186;28;1758;-57
2021/11/16 02:55:18;;;;;;;;;;;;;;;21.76;52.56;102564.34;2091438;28;1325;-57
2021/11/16 02:56:18;;;;;;;;;;;;;;;21.74;51.81;102571.53;2091097;28;1910;-58
2021/11/16 02:57:19;;;;;;;;;;;;;;;21.83;50.63;102566.94;2091387;28;830;-57
2021/11/16 02:58:20;;;;;;;;;;;;;;;21.73;52.32;102566.16;2091399;28;834;-57
2021/11/16 02:59:20;;;;;;;;;;;;;;;21.76;50.35;102564.34;2091257;28;898;-58
2021/11/16 03:00:20;;;;;;;;;;;;;;;21.80;51.13;102573.28;2091406;28;755;-58
2021/11/16 03:01:20;;;;;;;;;;;;;;;21.79;51.43;102570.56;2091369;28;827;-57
2021/11/16 03:02:21;;;;;;;;;;;;;;;21.73;51.76;102572.47;2091185;28;912;-58
2021/11/16 03:03:21;;;;;;;;;;;;;;;21.81;50.49;102568.75;2091422;28;945;-57
2021/11/16 03:04:22;;;;;;;;;;;;;;;21.72;52.54;102576.06;2091325;28;951;-58
2021/11/16 03:05:22;;;;;;;;;;;;;;;21.72;51.41;102576.06;2091249;28;855;-58
2021/11/16 03:06:23;;;;;;;;;;;;;;;21.77;51.51;102579.59;2091399;28;802;-57
2021/11/16 03:07:56;;;;;;;;;;;;;;;21.68;51.40;102574.31;2091333;28;848;-58
2021/11/16 03:08:56;;;;;;;;;;;;;;;21.61;51.63;102573.44;2091131;28;2046;-58
2021/11/16 03:09:56;;;;;;;;;;;;;;;21.64;53.32;102571.63;2091420;28;1065;-57
2021/11/16 03:10:59;;;;;;;;;;;;;;;21.67;49.98;102572.53;2091159;28;1192;-57
2021/11/16 03:12:00;;;;;;;;;;;;;;;21.74;50.08;102574.25;2091433;28;923;-58
2021/11/16 03:13:00;;;;;;;;;;;;;;;21.72;51.78;102573.38;2091415;28;855;-57
2021/11/16 03:14:00;;;;;;;;;;;;;;;21.67;51.50;102569.81;2090983;28;763;-57
2021/11/16 03:15:02;;;;;;;;;;;;;;;21.65;52.61;102571.63;2091331;28;909;-57
2021/11/16 03:16:07;;;;;;;;;;;;;;;21.64;52.46;102571.63;2091337;28;799;-57
2021/11/16 03:17:07;;;;;;;;;;;;;;;21.58;53.25;102570.75;2091263;28;1963;-58
2021/11/16 03:18:08;;;;;;;;;;;;;;;21.67;52.44;102571.59;2091319;28;760;-58
2021/11/16 03:19:08;;;;;;;;;;;;;;;21.66;51.04;102569.81;2091254;28;681;-57
2021/11/16 03:20:12;;;;;;;;;;;;;;;21.73;51.12;102560.75;2091383;28;799;-58
2021/11/16 03:21:13;;;;;;;;;;;;;;;21.72;51.86;102559.88;2091237;28;997;-57
2021/11/16 03:22:15;;;;;;;;;;;;;;;21.72;50.69;102570.66;2091115;28;828;-57
2021/11/16 03:23:21;;;;;;;;;;;;;;;21.71;51.22;102571.56;2091236;28;873;-59
2021/11/16 03:24:26;;;;;;;;;;;;;;;21.72;52.59;102564.38;2091311;28;912;-58
2021/11/16 03:25:30;;;;;;;;;;;;;;;21.69;51.75;102565.31;2091277;28;815;-57
2021/11/16 03:26:31;;;;;;;;;;;;;;;21.71;51.12;102567.97;2091315;28;836;-58
2021/11/16 03:27:36;;;;;;;;;;;;;;;21.65;51.35;102574.34;2091040;28;795;-57
2021/11/16 03:28:38;;;;;;;;;;;;;;;21.68;52.89;102566.22;2091502;28;825;-57
2021/11/16 03:29:44;;;;;;;;;;;;;;;21.67;52.78;102566.22;2091144;28;790;-58
2021/11/16 03:30:48;;;;;;;;;;;;;;;21.77;51.38;102563.41;2091346;28;1176;-58
2021/11/16 03:31:50;;;;;;;;;;;;;;;21.74;50.96;102571.53;2091286;28;810;-58
2021/11/16 03:32:51;;;;;;;;;;;;;;;21.66;53.54;102570.72;2091351;28;858;-58
2021/11/16 03:33:51;;;;;;;;;;;;;;;21.65;51.11;102568.94;2091271;28;933;-57
2021/11/16 03:34:51;;;;;;;;;;;;;;;21.64;51.46;102561.75;2091198;28;969;-57
2021/11/16 03:35:52;;;;;;;;;;;;;;;21.61;51.86;102562.63;2091401;28;898;-57
2021/11/16 03:36:52;;;;;;;;;;;;;;;21.74;49.99;102551.75;2091159;28;1963;-57
2021/11/16 03:37:55;;;;;;;;;;;;;;;21.85;50.68;102557.94;2091093;28;1206;-58
2021/11/16 03:38:57;;;;;;;;;;;;;;;21.76;51.83;102558.94;2091226;28;795;-57
2021/11/16 03:39:57;;;;;;;;;;;;;;;21.72;52.07;102559.88;2091243;28;2621;-57
2021/11/16 03:40:58;;;;;;;;;;;;;;;21.67;51.88;102561.72;2091231;28;763;-57
2021/11/16 03:41:58;;;;;;;;;;;;;;;21.62;52.51;102561.75;2091261;28;811;-58
2021/11/16 03:42:59;;;;;;;;;;;;;;;21.62;52.70;102556.38;2091217;28;1225;-57
2021/11/16 03:43:59;;;;;;;;;;;;;;;21.67;52.42;102547.34;2091273;28;894;-58
2021/11/16 03:45:00;;;;;;;;;;;;;;;21.66;52.26;102557.25;2082345;28;1336;-57
2021/11/16 03:46:00;;;;;;;;;;;;;;;21.60;52.63;102559.97;2082321;28;941;-57
2021/11/16 03:47:01;;;;;;;;;;;;;;;21.67;51.53;102558.13;2082451;28;965;-57
2021/11/16 03:48:02;;;;;;;;;;;;;;;21.69;51.24;102550.91;2091115;28;1055;-57
2021/11/16 03:49:02;;;;;;;;;;;;;;;21.67;52.06;102545.56;2091197;28;1147;-58
2021/11/16 03:50:04;;;;;;;;;;;;;;;21.72;51.15;102551.78;2091173;28;917;-57
2021/11/16 03:51:05;;;;;;;;;;;;;;;21.75;50.29;102543.66;2091021;28;791;-57
2021/11/16 03:52:05;;;;;;;;;;;;;;;21.76;51.98;102534.66;2091191;28;815;-57
2021/11/16 03:53:05;;;;;;;;;;;;;;;21.71;51.06;102536.50;2091185;28;756;-57
2021/11/16 03:54:06;;;;;;;;;;;;;;;21.68;51.67;102539.25;2090984;28;977;-57
2021/11/16 03:55:07;;;;;;;;;;;;;;;21.67;50.83;102537.47;2091310;28;842;-58
2021/11/16 03:56:07;;;;;;;;;;;;;;;21.72;49.67;102542.78;2091002;28;1070;-57
2021/11/16 03:57:08;;;;;;;;;;;;;;;21.72;51.49;102535.59;2091147;28;1903;-57
2021/11/16 03:58:09;;;;;;;;;;;;;;;21.70;51.40;102539.22;2091167;28;779;-57
2021/11/16 03:59:10;;;;;;;;;;;;;;;21.72;50.18;102532.00;2090870;28;787;-57
2021/11/16 04:00:13;;;;;;;;;;;;;;;21.64;52.49;102526.72;2091199;28;819;-57
2021/11/16 04:01:14;;;;;;;;;;;;;;;21.66;51.62;102532.97;2082249;28;898;-58
2021/11/16 04:02:14;;;;;;;;;;;;;;;21.69;50.25;102532.94;2082295;28;1010;-58
2021/11/16 04:03:15;;;;;;;;;;;;;;;21.66;51.62;102532.97;2091158;28;997;-58
2021/11/16 04:04:18;;;;;;;;;;;;;;;21.58;51.19;102529.44;2091835;28;909;-57
2021/11/16 04:05:19;;;;;;;;;;;;;;;21.71;51.34;102535.59;2092673;28;791;-57
2021/11/16 04:06:21;;;;;;;;;;;;;;;21.66;51.53;102532.06;2092700;28;804;-58
2021/11/16 04:07:21;;;;;;;;;;;;;;;21.63;50.76;102522.22;2092502;28;901;-57
2021/11/16 04:08:22;;;;;;;;;;;;;;;21.60;51.29;102528.50;2092683;28;886;-57
2021/11/16 04:09:22;;;;;;;;;;;;;;;21.70;51.73;102523.03;2092687;28;992;-58
2021/11/16 04:10:23;;;;;;;;;;;;;;;21.67;52.16;102525.75;2092609;28;949;-57
2021/11/16 04:11:23;;;;;;;;;;;;;;;21.62;52.48;102515.03;2092609;28;973;-57
2021/11/16 04:12:23;;;;;;;;;;;;;;;21.67;51.39;102502.41;2092203;28;993;-57
2021/11/16 04:13:24;;;;;;;;;;;;;;;21.69;51.46;102495.19;2092594;28;783;-57
2021/11/16 04:14:24;;;;;;;;;;;;;;;21.68;51.89;102495.19;2092576;28;935;-58
2021/11/16 04:15:27;;;;;;;;;;;;;;;21.64;51.81;102505.13;2092582;28;787;-58
2021/11/16 04:16:27;;;;;;;;;;;;;;;21.66;51.39;102502.41;2092496;28;1980;-57
2021/11/16 04:17:27;;;;;;;;;;;;;;;21.65;51.69;102506.00;2092356;28;783;-59
2021/11/16 04:18:27;;;;;;;;;;;;;;;21.65;52.27;102500.63;2092473;28;854;-58
2021/11/16 04:19:27;;;;;;;;;;;;;;;21.62;51.11;102501.56;2092486;28;901;-57
2021/11/16 04:20:29;;;;;;;;;;;;;;;21.70;50.43;102505.06;2092508;28;978;-57
2021/11/16 04:21:30;;;;;;;;;;;;;;;21.68;53.10;102509.56;2092553;28;858;-57
2021/11/16 04:22:30;;;;;;;;;;;;;;;21.66;50.78;102499.69;2092553;28;799;-57
2021/11/16 04:23:30;;;;;;;;;;;;;;;21.60;51.51;102492.56;2092245;28;755;-57
2021/11/16 04:24:31;;;;;;;;;;;;;;;21.63;51.32;102497.94;2092534;28;973;-57
2021/11/16 04:25:32;;;;;;;;;;;;;;;21.65;51.56;102501.53;2092529;28;803;-58
2021/11/16 04:26:32;;;;;;;;;;;;;;;21.69;50.96;102494.28;2092138;28;861;-57
2021/11/16 04:27:33;;;;;;;;;;;;;;;21.74;50.95;102493.31;2092546;28;851;-57
2021/11/16 04:28:33;;;;;;;;;;;;;;;21.72;50.25;102491.53;2092451;28;815;-58
2021/11/16 04:29:33;;;;;;;;;;;;;;;21.74;49.92;102498.72;2092321;28;969;-57
2021/11/16 04:30:33;;;;;;;;;;;;;;;21.74;51.39;102492.41;2092461;28;958;-57
2021/11/16 04:31:34;;;;;;;;;;;;;;;21.64;51.86;102491.66;2092463;28;1036;-58
2021/11/16 04:32:34;;;;;;;;;;;;;;;21.59;51.62;102498.84;2092471;28;830;-58
2021/11/16 04:33:35;;;;;;;;;;;;;;;21.64;51.37;102488.94;2092450;28;830;-58
2021/11/16 04:34:35;;;;;;;;;;;;;;;21.68;51.21;102492.50;2092433;28;809;-57
2021/11/16 04:35:36;;;;;;;;;;;;;;;21.73;49.89;102488.84;2092373;28;1047;-57
2021/11/16 04:36:36;;;;;;;;;;;;;;;21.68;52.67;102493.41;2092305;28;1955;-58
2021/11/16 04:37:40;;;;;;;;;;;;;;;21.73;51.34;102479.84;2092496;28;826;-57
2021/11/16 04:38:40;;;;;;;;;;;;;;;21.69;51.43;102489.78;2092372;28;1314;-57
2021/11/16 04:39:40;;;;;;;;;;;;;;;21.66;50.96;102492.53;2092087;28;762;-58
2021/11/16 04:40:42;;;;;;;;;;;;;;;21.67;52.90;102482.59;2092333;28;1205;-57
2021/11/16 04:41:44;;;;;;;;;;;;;;;21.70;52.30;102486.19;2092404;28;866;-57
2021/11/16 04:42:44;;;;;;;;;;;;;;;21.68;52.18;102488.00;2092411;28;791;-57
2021/11/16 04:43:44;;;;;;;;;;;;;;;21.62;51.96;102482.69;2092303;28;804;-57
2021/11/16 04:44:45;;;;;;;;;;;;;;;21.69;50.89;102484.41;2092238;28;969;-57
2021/11/16 04:45:50;;;;;;;;;;;;;;;21.72;51.42;102486.16;2092312;28;827;-58
2021/11/16 04:46:50;;;;;;;;;;;;;;;21.69;51.77;102484.41;2092353;28;834;-58
2021/11/16 04:47:56;;;;;;;;;;;;;;;21.60;52.24;102484.47;2092297;28;862;-57
2021/11/16 04:50:21;;;;;;;;;;;;;;;21.63;51.49;102473.69;2092217;28;799;-57
2021/11/16 04:51:41;;;;;;;;;;;;;;;21.71;50.48;102473.56;2092362;28;818;-57
2021/11/16 05:03:25;;;;;;;;;;;;;;;21.63;51.94;102473.69;2066852;28;807;-58
2021/11/16 05:04:25;;;;;;;;;;;;;;;21.64;51.25;102467.38;2066492;28;950;-57
2021/11/16 05:05:25;;;;;;;;;;;;;;;22.32;49.40;102460.13;2066751;28;1025;-58
2021/11/16 05:06:26;;;;;;;;;;;;;;;22.65;50.53;102464.13;2066834;28;859;-58
2021/11/16 05:07:28;;;;;;;;;;;;;;;22.87;50.26;102461.09;2066648;28;830;-57
2021/11/16 05:08:28;;;;;;;;;;;;;;;23.02;47.76;102453.59;2066785;28;796;-58
2021/11/16 05:09:31;;;;;;;;;;;;;;;23.08;46.92;102457.09;2066698;28;966;-59
2021/11/16 05:10:31;;;;;;;;;;;;;;;23.23;47.67;102458.63;2066556;28;815;-58
2021/11/16 05:11:31;;;;;;;;;;;;;;;23.28;49.68;102458.53;2066664;28;1221;-60
2021/11/16 05:12:32;;;;;;;;;;;;;;;23.37;47.15;102458.34;2066578;28;1125;-58
2021/11/16 05:13:32;;;;;;;;;;;;;;;23.36;47.52;102463.81;2066658;28;766;-58
2021/11/16 05:14:32;;;;;;;;;;;;;;;23.40;49.08;102465.53;2066769;28;1013;-59
2021/11/16 05:15:34;;;;;;;;;;;;;;;23.42;48.06;102458.28;2066453;28;918;-58
2021/11/16 05:16:34;;;;;;;;;;;;;;;23.57;47.07;102461.56;2066594;28;1899;-58
2021/11/16 05:17:35;;;;;;;;;;;;;;;23.64;47.05;102460.53;2066721;28;892;-58
2021/11/16 05:18:35;;;;;;;;;;;;;;;23.66;46.53;102459.59;2066201;28;1056;-57
2021/11/16 05:19:36;;;;;;;;;;;;;;;23.65;47.44;102447.00;2066729;28;887;-57
2021/11/16 05:20:37;;;;;;;;;;;;;;;23.77;46.36;102451.22;2066667;28;807;-57
2021/11/16 05:21:37;;;;;;;;;;;;;;;23.76;45.94;102454.84;2066397;28;883;-56
2021/11/16 05:22:37;;;;;;;;;;;;;;;23.86;46.63;102451.97;2066683;28;863;-57
2021/11/16 05:23:43;;;;;;;;;;;;;;;23.89;46.28;102450.06;2066570;28;1001;-56
2021/11/16 05:24:43;;;;;;;;;;;;;;;23.99;46.71;102448.09;2066253;28;923;-56
2021/11/16 05:25:50;;;;;;;;;;;;;;;23.98;45.47;102451.69;2066610;28;839;-56
2021/11/16 05:26:51;;;;;;;;;;;;;;;24.06;46.31;102440.72;2066565;28;797;-55
2021/11/16 05:27:51;;;;;;;;;;;;;;;24.05;48.15;102445.25;2066293;28;813;-56
2021/11/16 05:28:51;;;;;;;;;;;;;;;24.06;48.02;102441.63;2066590;28;973;-56
2021/11/16 05:29:51;;;;;;;;;;;;;;;24.08;46.86;102434.34;2066552;28;1017;-55
2021/11/16 05:30:52;;;;;;;;;;;;;;;24.12;47.46;102444.19;2066647;28;782;-57
2021/11/16 05:31:53;;;;;;;;;;;;;;;24.12;45.97;102436.06;2078873;28;1033;-57
2021/11/16 05:32:54;;;;;;;;;;;;;;;24.16;47.57;102435.97;2083675;28;961;-57
2021/11/16 05:33:55;;;;;;;;;;;;;;;24.15;46.61;102443.22;2083785;28;819;-58